sensor_id;sensor_type;location;lat;lon;timestamp;temperature;humidity
9437;DHT22;4757;59.334;18.034;2024-03-29T00:02:20;6.70;99.90
9437;DHT22;4757;59.334;18.034;2024-03-29T00:04:46;6.70;99.90
9437;DHT22;4757;59.334;18.034;2024-03-29T00:07:13;6.80;99.90
9437;DHT22;4757;59.334;18.034;2024-03-29T00:09:39;6.80;99.90
9437;DHT22;4757;59.334;18.034;2024-03-29T00:12:06;6.70;99.90
9437;DHT22;4757;59.334;18.034;2024-03-29T00:14:32;6.80;99.90
9437;DHT22;4757;59.334;18.034;2024-03-29T00:16:58;6.90;99.90
9437;DHT22;4757;59.334;18.034;2024-03-29T00:19:25;6.80;99.90
9437;DHT22;4757;59.334;18.034;2024-03-29T00:21:51;6.80;99.90
9437;DHT22;4757;59.334;18.034;2024-03-29T00:24:17;6.80;99.90
9437;DHT22;4757;59.334;18.034;2024-03-29T00:26:44;6.70;99.90
9437;DHT22;4757;59.334;18.034;2024-03-29T00:29:10;6.80;99.90
9437;DHT22;4757;59.334;18.034;2024-03-29T00:31:37;6.70;99.90
9437;DHT22;4757;59.334;18.034;2024-03-29T00:34:03;6.70;99.90
9437;DHT22;4757;59.334;18.034;2024-03-29T00:36:29;6.70;99.90
9437;DHT22;4757;59.334;18.034;2024-03-29T00:38:55;6.70;99.90
9437;DHT22;4757;59.334;18.034;2024-03-29T00:41:22;6.70;99.90
9437;DHT22;4757;59.334;18.034;2024-03-29T00:43:48;6.60;99.90
9437;DHT22;4757;59.334;18.034;2024-03-29T00:46:14;6.60;99.90
9437;DHT22;4757;59.334;18.034;2024-03-29T00:48:41;6.70;99.90
9437;DHT22;4757;59.334;18.034;2024-03-29T00:51:10;6.60;99.90
9437;DHT22;4757;59.334;18.034;2024-03-29T00:53:36;6.50;99.90
9437;DHT22;4757;59.334;18.034;2024-03-29T00:56:02;6.50;99.90
9437;DHT22;4757;59.334;18.034;2024-03-29T00:58:29;6.50;99.90
9437;DHT22;4757;59.334;18.034;2024-03-29T01:00:55;6.50;99.90
9437;DHT22;4757;59.334;18.034;2024-03-29T01:03:22;6.50;99.90
9437;DHT22;4757;59.334;18.034;2024-03-29T01:05:49;6.60;99.90
9437;DHT22;4757;59.334;18.034;2024-03-29T01:08:15;6.50;99.90
9437;DHT22;4757;59.334;18.034;2024-03-29T01:10:42;6.50;99.90
9437;DHT22;4757;59.334;18.034;2024-03-29T01:13:08;6.50;99.90
9437;DHT22;4757;59.334;18.034;2024-03-29T01:15:38;6.50;99.90
9437;DHT22;4757;59.334;18.034;2024-03-29T01:18:04;6.50;99.90
9437;DHT22;4757;59.334;18.034;2024-03-29T01:20:31;6.50;99.90
9437;DHT22;4757;59.334;18.034;2024-03-29T01:22:57;6.40;99.90
9437;DHT22;4757;59.334;18.034;2024-03-29T01:25:24;6.40;99.90
9437;DHT22;4757;59.334;18.034;2024-03-29T01:27:50;6.40;99.90
9437;DHT22;4757;59.334;18.034;2024-03-29T01:30:19;6.50;99.90
9437;DHT22;4757;59.334;18.034;2024-03-29T01:32:46;6.40;99.90
9437;DHT22;4757;59.334;18.034;2024-03-29T01:35:12;6.40;99.90
9437;DHT22;4757;59.334;18.034;2024-03-29T01:37:39;6.40;99.90
9437;DHT22;4757;59.334;18.034;2024-03-29T01:40:06;6.40;99.90
9437;DHT22;4757;59.334;18.034;2024-03-29T01:42:33;6.30;99.90
9437;DHT22;4757;59.334;18.034;2024-03-29T01:44:59;6.30;99.90
9437;DHT22;4757;59.334;18.034;2024-03-29T01:47:26;6.40;99.90
9437;DHT22;4757;59.334;18.034;2024-03-29T01:49:52;6.40;99.90
9437;DHT22;4757;59.334;18.034;2024-03-29T01:52:22;6.40;99.90
9437;DHT22;4757;59.334;18.034;2024-03-29T01:54:51;6.40;99.90
9437;DHT22;4757;59.334;18.034;2024-03-29T01:57:17;6.40;99.90
9437;DHT22;4757;59.334;18.034;2024-03-29T01:59:45;6.40;99.90
9437;DHT22;4757;59.334;18.034;2024-03-29T02:02:12;6.40;99.90
9437;DHT22;4757;59.334;18.034;2024-03-29T02:04:39;6.30;99.90
9437;DHT22;4757;59.334;18.034;2024-03-29T02:07:06;6.30;99.90
9437;DHT22;4757;59.334;18.034;2024-03-29T02:09:36;6.30;99.90
9437;DHT22;4757;59.334;18.034;2024-03-29T02:12:02;6.30;99.90
9437;DHT22;4757;59.334;18.034;2024-03-29T02:14:29;6.30;99.90
9437;DHT22;4757;59.334;18.034;2024-03-29T02:16:55;6.30;99.90
9437;DHT22;4757;59.334;18.034;2024-03-29T02:19:22;6.30;99.90
9437;DHT22;4757;59.334;18.034;2024-03-29T02:21:48;6.30;99.90
9437;DHT22;4757;59.334;18.034;2024-03-29T02:24:16;6.20;99.90
9437;DHT22;4757;59.334;18.034;2024-03-29T02:26:43;6.20;99.90
9437;DHT22;4757;59.334;18.034;2024-03-29T02:29:11;6.10;99.90
9437;DHT22;4757;59.334;18.034;2024-03-29T02:31:39;6.10;99.90
9437;DHT22;4757;59.334;18.034;2024-03-29T02:34:06;6.10;99.90
9437;DHT22;4757;59.334;18.034;2024-03-29T02:36:34;6.10;99.90
9437;DHT22;4757;59.334;18.034;2024-03-29T02:39:00;6.00;99.90
9437;DHT22;4757;59.334;18.034;2024-03-29T02:41:27;5.90;99.90
9437;DHT22;4757;59.334;18.034;2024-03-29T02:43:56;6.00;99.90
9437;DHT22;4757;59.334;18.034;2024-03-29T02:46:23;5.90;99.90
9437;DHT22;4757;59.334;18.034;2024-03-29T02:48:49;5.90;99.90
9437;DHT22;4757;59.334;18.034;2024-03-29T02:51:15;5.90;99.90
9437;DHT22;4757;59.334;18.034;2024-03-29T02:53:42;5.80;99.90
9437;DHT22;4757;59.334;18.034;2024-03-29T02:56:08;5.80;99.90
9437;DHT22;4757;59.334;18.034;2024-03-29T02:58:35;5.80;99.90
9437;DHT22;4757;59.334;18.034;2024-03-29T03:01:05;5.80;99.90
9437;DHT22;4757;59.334;18.034;2024-03-29T03:03:31;5.80;99.90
9437;DHT22;4757;59.334;18.034;2024-03-29T03:05:57;5.70;99.90
9437;DHT22;4757;59.334;18.034;2024-03-29T03:08:24;5.80;99.90
9437;DHT22;4757;59.334;18.034;2024-03-29T03:11:10;5.80;99.90
9437;DHT22;4757;59.334;18.034;2024-03-29T03:13:36;5.80;99.90
9437;DHT22;4757;59.334;18.034;2024-03-29T03:16:02;5.90;99.90
9437;DHT22;4757;59.334;18.034;2024-03-29T03:18:29;5.80;99.90
9437;DHT22;4757;59.334;18.034;2024-03-29T03:20:55;5.80;99.90
9437;DHT22;4757;59.334;18.034;2024-03-29T03:23:24;5.80;99.90
9437;DHT22;4757;59.334;18.034;2024-03-29T03:25:54;5.80;99.90
9437;DHT22;4757;59.334;18.034;2024-03-29T03:28:21;5.80;99.90
9437;DHT22;4757;59.334;18.034;2024-03-29T03:30:48;5.80;99.90
9437;DHT22;4757;59.334;18.034;2024-03-29T03:33:14;5.90;99.90
9437;DHT22;4757;59.334;18.034;2024-03-29T03:35:42;5.90;99.90
9437;DHT22;4757;59.334;18.034;2024-03-29T03:38:08;5.90;99.90
9437;DHT22;4757;59.334;18.034;2024-03-29T03:40:35;5.90;99.90
9437;DHT22;4757;59.334;18.034;2024-03-29T03:43:02;5.80;99.90
9437;DHT22;4757;59.334;18.034;2024-03-29T03:45:28;5.80;99.90
9437;DHT22;4757;59.334;18.034;2024-03-29T03:47:54;5.80;99.90
9437;DHT22;4757;59.334;18.034;2024-03-29T03:50:21;5.90;99.90
9437;DHT22;4757;59.334;18.034;2024-03-29T03:52:47;5.90;99.90
9437;DHT22;4757;59.334;18.034;2024-03-29T03:55:14;5.80;99.90
9437;DHT22;4757;59.334;18.034;2024-03-29T03:57:40;5.90;99.90
9437;DHT22;4757;59.334;18.034;2024-03-29T04:00:10;5.90;99.90
9437;DHT22;4757;59.334;18.034;2024-03-29T04:02:39;5.80;99.90
9437;DHT22;4757;59.334;18.034;2024-03-29T04:05:06;5.80;99.90
9437;DHT22;4757;59.334;18.034;2024-03-29T04:07:32;5.80;99.90
9437;DHT22;4757;59.334;18.034;2024-03-29T04:09:58;5.90;99.90
9437;DHT22;4757;59.334;18.034;2024-03-29T04:12:25;5.80;99.90
9437;DHT22;4757;59.334;18.034;2024-03-29T04:14:51;5.80;99.90
9437;DHT22;4757;59.334;18.034;2024-03-29T04:17:17;5.80;99.90
9437;DHT22;4757;59.334;18.034;2024-03-29T04:19:43;5.90;99.90
9437;DHT22;4757;59.334;18.034;2024-03-29T04:22:10;5.80;99.90
9437;DHT22;4757;59.334;18.034;2024-03-29T04:24:36;5.80;99.90
9437;DHT22;4757;59.334;18.034;2024-03-29T04:27:02;5.80;99.90
9437;DHT22;4757;59.334;18.034;2024-03-29T04:29:30;5.80;99.90
9437;DHT22;4757;59.334;18.034;2024-03-29T04:31:56;5.80;99.90
9437;DHT22;4757;59.334;18.034;2024-03-29T04:34:22;5.80;99.90
9437;DHT22;4757;59.334;18.034;2024-03-29T04:36:48;5.90;99.90
9437;DHT22;4757;59.334;18.034;2024-03-29T04:39:15;5.90;99.90
9437;DHT22;4757;59.334;18.034;2024-03-29T04:41:41;5.90;99.90
9437;DHT22;4757;59.334;18.034;2024-03-29T04:44:08;5.90;99.90
9437;DHT22;4757;59.334;18.034;2024-03-29T04:46:34;6.00;99.90
9437;DHT22;4757;59.334;18.034;2024-03-29T04:49:01;6.00;99.90
9437;DHT22;4757;59.334;18.034;2024-03-29T04:51:27;6.00;99.90
9437;DHT22;4757;59.334;18.034;2024-03-29T04:53:53;6.00;99.90
9437;DHT22;4757;59.334;18.034;2024-03-29T04:56:20;6.00;99.90
9437;DHT22;4757;59.334;18.034;2024-03-29T04:58:47;6.00;99.90
9437;DHT22;4757;59.334;18.034;2024-03-29T05:01:13;6.00;99.90
9437;DHT22;4757;59.334;18.034;2024-03-29T05:03:39;6.00;99.90
9437;DHT22;4757;59.334;18.034;2024-03-29T05:06:06;6.00;99.90
9437;DHT22;4757;59.334;18.034;2024-03-29T05:08:32;6.10;99.90
9437;DHT22;4757;59.334;18.034;2024-03-29T05:10:59;6.00;99.90
9437;DHT22;4757;59.334;18.034;2024-03-29T05:13:25;6.00;99.90
9437;DHT22;4757;59.334;18.034;2024-03-29T05:15:52;6.10;99.90
9437;DHT22;4757;59.334;18.034;2024-03-29T05:18:18;6.10;99.90
9437;DHT22;4757;59.334;18.034;2024-03-29T05:20:45;6.10;99.90
9437;DHT22;4757;59.334;18.034;2024-03-29T05:23:15;6.10;99.90
9437;DHT22;4757;59.334;18.034;2024-03-29T05:25:42;6.10;99.90
9437;DHT22;4757;59.334;18.034;2024-03-29T05:28:09;6.20;99.90
9437;DHT22;4757;59.334;18.034;2024-03-29T05:30:35;6.20;99.90
9437;DHT22;4757;59.334;18.034;2024-03-29T05:33:05;6.20;99.90
9437;DHT22;4757;59.334;18.034;2024-03-29T05:35:33;6.20;99.90
9437;DHT22;4757;59.334;18.034;2024-03-29T05:37:59;6.20;99.90
9437;DHT22;4757;59.334;18.034;2024-03-29T05:40:26;6.30;99.90
9437;DHT22;4757;59.334;18.034;2024-03-29T05:42:54;6.30;99.90
9437;DHT22;4757;59.334;18.034;2024-03-29T05:45:28;6.30;99.90
9437;DHT22;4757;59.334;18.034;2024-03-29T05:47:55;6.30;99.90
9437;DHT22;4757;59.334;18.034;2024-03-29T05:50:22;6.30;99.90
9437;DHT22;4757;59.334;18.034;2024-03-29T05:52:49;6.30;99.90
9437;DHT22;4757;59.334;18.034;2024-03-29T05:55:15;6.30;99.90
9437;DHT22;4757;59.334;18.034;2024-03-29T05:57:41;6.40;99.90
9437;DHT22;4757;59.334;18.034;2024-03-29T06:00:11;6.30;99.90
9437;DHT22;4757;59.334;18.034;2024-03-29T06:02:42;6.30;99.90
9437;DHT22;4757;59.334;18.034;2024-03-29T06:05:10;6.30;99.90
9437;DHT22;4757;59.334;18.034;2024-03-29T06:07:37;6.40;99.90
9437;DHT22;4757;59.334;18.034;2024-03-29T06:10:03;6.40;99.90
9437;DHT22;4757;59.334;18.034;2024-03-29T06:12:34;6.30;99.90
9437;DHT22;4757;59.334;18.034;2024-03-29T06:15:01;6.40;99.90
9437;DHT22;4757;59.334;18.034;2024-03-29T06:17:46;6.40;99.90
9437;DHT22;4757;59.334;18.034;2024-03-29T06:20:13;6.40;99.90
9437;DHT22;4757;59.334;18.034;2024-03-29T06:22:39;6.40;99.90
9437;DHT22;4757;59.334;18.034;2024-03-29T06:25:06;6.30;99.90
9437;DHT22;4757;59.334;18.034;2024-03-29T06:27:33;6.40;99.90
9437;DHT22;4757;59.334;18.034;2024-03-29T06:30:00;6.50;99.90
9437;DHT22;4757;59.334;18.034;2024-03-29T06:32:26;6.50;99.90
9437;DHT22;4757;59.334;18.034;2024-03-29T06:34:53;6.50;99.90
9437;DHT22;4757;59.334;18.034;2024-03-29T06:37:20;6.50;99.90
9437;DHT22;4757;59.334;18.034;2024-03-29T06:39:51;6.50;99.90
9437;DHT22;4757;59.334;18.034;2024-03-29T06:42:17;6.50;99.90
9437;DHT22;4757;59.334;18.034;2024-03-29T06:44:47;6.60;99.90
9437;DHT22;4757;59.334;18.034;2024-03-29T06:47:13;6.60;99.90
9437;DHT22;4757;59.334;18.034;2024-03-29T06:49:39;6.60;99.90
9437;DHT22;4757;59.334;18.034;2024-03-29T06:52:06;6.60;99.90
9437;DHT22;4757;59.334;18.034;2024-03-29T06:54:32;6.70;99.90
9437;DHT22;4757;59.334;18.034;2024-03-29T06:56:59;6.70;99.90
9437;DHT22;4757;59.334;18.034;2024-03-29T06:59:26;6.70;99.90
9437;DHT22;4757;59.334;18.034;2024-03-29T07:01:52;6.70;99.90
9437;DHT22;4757;59.334;18.034;2024-03-29T07:04:19;6.60;99.90
9437;DHT22;4757;59.334;18.034;2024-03-29T07:06:46;6.70;99.90
9437;DHT22;4757;59.334;18.034;2024-03-29T07:09:14;6.70;99.90
9437;DHT22;4757;59.334;18.034;2024-03-29T07:11:40;6.70;99.90
9437;DHT22;4757;59.334;18.034;2024-03-29T07:14:06;6.80;99.90
9437;DHT22;4757;59.334;18.034;2024-03-29T07:16:33;6.80;99.90
9437;DHT22;4757;59.334;18.034;2024-03-29T07:19:00;6.80;99.90
9437;DHT22;4757;59.334;18.034;2024-03-29T07:21:26;6.90;99.90
9437;DHT22;4757;59.334;18.034;2024-03-29T07:23:53;6.90;99.90
9437;DHT22;4757;59.334;18.034;2024-03-29T07:26:19;7.00;99.90
9437;DHT22;4757;59.334;18.034;2024-03-29T07:28:46;7.00;99.90
9437;DHT22;4757;59.334;18.034;2024-03-29T07:31:12;7.10;99.90
9437;DHT22;4757;59.334;18.034;2024-03-29T07:33:39;7.10;99.90
9437;DHT22;4757;59.334;18.034;2024-03-29T07:36:06;7.10;99.90
9437;DHT22;4757;59.334;18.034;2024-03-29T07:38:32;7.20;99.90
9437;DHT22;4757;59.334;18.034;2024-03-29T07:40:59;7.20;99.90
9437;DHT22;4757;59.334;18.034;2024-03-29T07:43:25;7.20;99.90
9437;DHT22;4757;59.334;18.034;2024-03-29T07:45:51;7.20;99.90
9437;DHT22;4757;59.334;18.034;2024-03-29T07:48:18;7.30;99.90
9437;DHT22;4757;59.334;18.034;2024-03-29T07:50:45;7.30;99.90
9437;DHT22;4757;59.334;18.034;2024-03-29T07:53:12;7.40;99.90
9437;DHT22;4757;59.334;18.034;2024-03-29T07:55:39;7.40;99.90
9437;DHT22;4757;59.334;18.034;2024-03-29T07:58:06;7.50;99.90
9437;DHT22;4757;59.334;18.034;2024-03-29T08:00:32;7.50;99.90
9437;DHT22;4757;59.334;18.034;2024-03-29T08:02:59;7.50;99.90
9437;DHT22;4757;59.334;18.034;2024-03-29T08:05:26;7.50;99.90
9437;DHT22;4757;59.334;18.034;2024-03-29T08:07:53;7.50;99.90
9437;DHT22;4757;59.334;18.034;2024-03-29T08:10:21;7.40;99.90
9437;DHT22;4757;59.334;18.034;2024-03-29T08:12:47;7.40;99.90
9437;DHT22;4757;59.334;18.034;2024-03-29T08:15:14;7.50;99.90
9437;DHT22;4757;59.334;18.034;2024-03-29T08:17:40;7.40;99.90
9437;DHT22;4757;59.334;18.034;2024-03-29T08:20:07;7.50;99.90
9437;DHT22;4757;59.334;18.034;2024-03-29T08:22:33;7.50;99.90
9437;DHT22;4757;59.334;18.034;2024-03-29T08:25:00;7.50;99.90
9437;DHT22;4757;59.334;18.034;2024-03-29T08:27:27;7.50;99.90
9437;DHT22;4757;59.334;18.034;2024-03-29T08:29:53;7.60;99.90
9437;DHT22;4757;59.334;18.034;2024-03-29T08:32:20;7.60;99.90
9437;DHT22;4757;59.334;18.034;2024-03-29T08:34:46;7.60;99.90
9437;DHT22;4757;59.334;18.034;2024-03-29T08:37:13;7.70;99.90
9437;DHT22;4757;59.334;18.034;2024-03-29T08:39:41;7.70;99.90
9437;DHT22;4757;59.334;18.034;2024-03-29T08:42:08;7.80;99.90
9437;DHT22;4757;59.334;18.034;2024-03-29T08:44:44;7.80;99.90
9437;DHT22;4757;59.334;18.034;2024-03-29T08:47:11;7.80;99.90
9437;DHT22;4757;59.334;18.034;2024-03-29T08:49:37;7.90;99.90
9437;DHT22;4757;59.334;18.034;2024-03-29T08:52:04;8.00;99.90
9437;DHT22;4757;59.334;18.034;2024-03-29T08:54:31;8.00;99.90
9437;DHT22;4757;59.334;18.034;2024-03-29T08:56:58;7.90;99.90
9437;DHT22;4757;59.334;18.034;2024-03-29T08:59:25;7.90;99.90
9437;DHT22;4757;59.334;18.034;2024-03-29T09:01:51;8.00;99.90
9437;DHT22;4757;59.334;18.034;2024-03-29T09:04:19;7.90;99.90
9437;DHT22;4757;59.334;18.034;2024-03-29T09:06:45;7.90;99.90
9437;DHT22;4757;59.334;18.034;2024-03-29T09:09:12;7.90;99.90
9437;DHT22;4757;59.334;18.034;2024-03-29T09:11:39;7.90;99.90
9437;DHT22;4757;59.334;18.034;2024-03-29T09:14:06;7.90;99.90
9437;DHT22;4757;59.334;18.034;2024-03-29T09:16:35;8.00;99.90
9437;DHT22;4757;59.334;18.034;2024-03-29T09:19:01;8.10;99.90
9437;DHT22;4757;59.334;18.034;2024-03-29T09:21:29;8.20;99.90
9437;DHT22;4757;59.334;18.034;2024-03-29T09:23:56;8.30;99.90
9437;DHT22;4757;59.334;18.034;2024-03-29T09:26:22;8.40;99.90
9437;DHT22;4757;59.334;18.034;2024-03-29T09:28:48;8.60;99.90
9437;DHT22;4757;59.334;18.034;2024-03-29T09:31:16;8.70;99.90
9437;DHT22;4757;59.334;18.034;2024-03-29T09:33:42;8.80;99.90
9437;DHT22;4757;59.334;18.034;2024-03-29T09:36:08;8.80;99.90
9437;DHT22;4757;59.334;18.034;2024-03-29T09:38:37;8.80;99.90
9437;DHT22;4757;59.334;18.034;2024-03-29T09:41:10;9.10;99.90
9437;DHT22;4757;59.334;18.034;2024-03-29T09:43:38;9.00;99.90
9437;DHT22;4757;59.334;18.034;2024-03-29T09:46:08;9.20;99.90
9437;DHT22;4757;59.334;18.034;2024-03-29T09:48:37;9.10;99.90
9437;DHT22;4757;59.334;18.034;2024-03-29T09:51:05;9.10;99.90
9437;DHT22;4757;59.334;18.034;2024-03-29T09:53:37;9.10;99.90
9437;DHT22;4757;59.334;18.034;2024-03-29T09:56:04;9.10;99.90
9437;DHT22;4757;59.334;18.034;2024-03-29T09:58:32;9.30;99.90
9437;DHT22;4757;59.334;18.034;2024-03-29T10:01:02;8.90;99.90
9437;DHT22;4757;59.334;18.034;2024-03-29T10:03:39;9.00;99.90
9437;DHT22;4757;59.334;18.034;2024-03-29T10:06:06;8.90;99.90
9437;DHT22;4757;59.334;18.034;2024-03-29T10:08:38;8.90;99.90
9437;DHT22;4757;59.334;18.034;2024-03-29T10:11:04;9.10;99.90
9437;DHT22;4757;59.334;18.034;2024-03-29T10:13:31;9.10;99.90
9437;DHT22;4757;59.334;18.034;2024-03-29T10:15:57;9.20;99.90
9437;DHT22;4757;59.334;18.034;2024-03-29T10:18:26;9.20;99.90
9437;DHT22;4757;59.334;18.034;2024-03-29T10:21:04;9.30;99.90
9437;DHT22;4757;59.334;18.034;2024-03-29T10:23:33;9.40;99.90
9437;DHT22;4757;59.334;18.034;2024-03-29T10:26:02;9.40;99.90
9437;DHT22;4757;59.334;18.034;2024-03-29T10:28:33;9.40;99.90
9437;DHT22;4757;59.334;18.034;2024-03-29T10:31:01;9.40;99.90
9437;DHT22;4757;59.334;18.034;2024-03-29T10:33:32;9.30;99.90
9437;DHT22;4757;59.334;18.034;2024-03-29T10:36:00;9.30;99.90
9437;DHT22;4757;59.334;18.034;2024-03-29T10:38:27;9.30;99.90
9437;DHT22;4757;59.334;18.034;2024-03-29T10:40:54;9.30;99.90
9437;DHT22;4757;59.334;18.034;2024-03-29T10:43:21;9.20;99.90
9437;DHT22;4757;59.334;18.034;2024-03-29T10:45:48;9.10;99.90
9437;DHT22;4757;59.334;18.034;2024-03-29T10:48:17;9.10;99.90
9437;DHT22;4757;59.334;18.034;2024-03-29T10:50:44;9.10;99.90
9437;DHT22;4757;59.334;18.034;2024-03-29T10:53:12;8.90;99.90
9437;DHT22;4757;59.334;18.034;2024-03-29T10:55:42;8.90;99.90
9437;DHT22;4757;59.334;18.034;2024-03-29T10:58:11;9.00;99.90
9437;DHT22;4757;59.334;18.034;2024-03-29T11:00:48;9.00;99.90
9437;DHT22;4757;59.334;18.034;2024-03-29T11:03:38;9.00;99.90
9437;DHT22;4757;59.334;18.034;2024-03-29T11:06:07;9.00;99.90
9437;DHT22;4757;59.334;18.034;2024-03-29T11:08:36;8.90;99.90
9437;DHT22;4757;59.334;18.034;2024-03-29T11:11:12;8.90;99.90
9437;DHT22;4757;59.334;18.034;2024-03-29T11:14:03;8.90;99.90
9437;DHT22;4757;59.334;18.034;2024-03-29T11:16:32;8.90;99.90
9437;DHT22;4757;59.334;18.034;2024-03-29T11:18:59;9.00;99.90
9437;DHT22;4757;59.334;18.034;2024-03-29T11:21:31;9.10;99.90
9437;DHT22;4757;59.334;18.034;2024-03-29T11:23:58;9.10;99.90
9437;DHT22;4757;59.334;18.034;2024-03-29T11:26:30;9.30;99.90
9437;DHT22;4757;59.334;18.034;2024-03-29T11:28:56;9.20;99.90
9437;DHT22;4757;59.334;18.034;2024-03-29T11:31:25;9.30;99.90
9437;DHT22;4757;59.334;18.034;2024-03-29T11:33:52;9.40;99.90
9437;DHT22;4757;59.334;18.034;2024-03-29T11:36:28;9.40;99.90
9437;DHT22;4757;59.334;18.034;2024-03-29T11:38:58;9.60;99.90
9437;DHT22;4757;59.334;18.034;2024-03-29T11:41:26;9.90;99.90
9437;DHT22;4757;59.334;18.034;2024-03-29T11:43:54;10.20;99.90
9437;DHT22;4757;59.334;18.034;2024-03-29T11:46:22;10.10;99.90
9437;DHT22;4757;59.334;18.034;2024-03-29T11:48:49;10.70;99.90
9437;DHT22;4757;59.334;18.034;2024-03-29T11:51:19;10.50;99.90
9437;DHT22;4757;59.334;18.034;2024-03-29T11:53:52;10.70;99.90
9437;DHT22;4757;59.334;18.034;2024-03-29T11:56:19;10.70;99.90
9437;DHT22;4757;59.334;18.034;2024-03-29T11:58:47;10.70;99.90
9437;DHT22;4757;59.334;18.034;2024-03-29T12:01:15;10.60;99.90
9437;DHT22;4757;59.334;18.034;2024-03-29T12:03:44;10.70;99.90
9437;DHT22;4757;59.334;18.034;2024-03-29T12:06:10;11.00;99.90
9437;DHT22;4757;59.334;18.034;2024-03-29T12:08:40;11.10;99.90
9437;DHT22;4757;59.334;18.034;2024-03-29T12:11:09;11.20;99.90
9437;DHT22;4757;59.334;18.034;2024-03-29T12:13:35;11.20;99.90
9437;DHT22;4757;59.334;18.034;2024-03-29T12:16:03;11.20;99.90
9437;DHT22;4757;59.334;18.034;2024-03-29T12:18:29;11.10;99.90
9437;DHT22;4757;59.334;18.034;2024-03-29T12:20:58;11.10;99.90
9437;DHT22;4757;59.334;18.034;2024-03-29T12:23:25;11.20;99.90
9437;DHT22;4757;59.334;18.034;2024-03-29T12:25:57;11.10;99.90
9437;DHT22;4757;59.334;18.034;2024-03-29T12:28:25;11.30;99.90
9437;DHT22;4757;59.334;18.034;2024-03-29T12:30:52;11.40;99.90
9437;DHT22;4757;59.334;18.034;2024-03-29T12:33:23;11.60;99.90
9437;DHT22;4757;59.334;18.034;2024-03-29T12:35:53;11.60;99.90
9437;DHT22;4757;59.334;18.034;2024-03-29T12:38:21;12.00;99.90
9437;DHT22;4757;59.334;18.034;2024-03-29T12:40:49;12.70;99.90
9437;DHT22;4757;59.334;18.034;2024-03-29T12:43:23;13.50;99.90
9437;DHT22;4757;59.334;18.034;2024-03-29T12:45:51;14.10;99.90
9437;DHT22;4757;59.334;18.034;2024-03-29T12:48:22;13.80;99.90
9437;DHT22;4757;59.334;18.034;2024-03-29T12:50:52;13.10;99.90
9437;DHT22;4757;59.334;18.034;2024-03-29T12:53:21;12.60;99.90
9437;DHT22;4757;59.334;18.034;2024-03-29T12:55:48;12.10;99.90
9437;DHT22;4757;59.334;18.034;2024-03-29T12:58:16;12.10;99.90
9437;DHT22;4757;59.334;18.034;2024-03-29T13:00:44;12.10;99.90
9437;DHT22;4757;59.334;18.034;2024-03-29T13:03:11;12.10;99.90
9437;DHT22;4757;59.334;18.034;2024-03-29T13:05:39;11.80;99.90
9437;DHT22;4757;59.334;18.034;2024-03-29T13:08:10;11.90;99.90
9437;DHT22;4757;59.334;18.034;2024-03-29T13:10:38;11.90;99.90
9437;DHT22;4757;59.334;18.034;2024-03-29T13:13:06;11.80;99.90
9437;DHT22;4757;59.334;18.034;2024-03-29T13:15:35;11.80;99.90
9437;DHT22;4757;59.334;18.034;2024-03-29T13:18:03;11.70;99.90
9437;DHT22;4757;59.334;18.034;2024-03-29T13:20:31;11.60;99.90
9437;DHT22;4757;59.334;18.034;2024-03-29T13:22:59;11.60;99.90
9437;DHT22;4757;59.334;18.034;2024-03-29T13:25:26;11.60;99.90
9437;DHT22;4757;59.334;18.034;2024-03-29T13:27:54;11.50;99.90
9437;DHT22;4757;59.334;18.034;2024-03-29T13:30:24;11.50;99.90
9437;DHT22;4757;59.334;18.034;2024-03-29T13:32:52;11.50;99.90
9437;DHT22;4757;59.334;18.034;2024-03-29T13:35:19;11.50;99.90
9437;DHT22;4757;59.334;18.034;2024-03-29T13:37:49;11.40;99.90
9437;DHT22;4757;59.334;18.034;2024-03-29T13:40:20;11.30;99.90
9437;DHT22;4757;59.334;18.034;2024-03-29T13:42:47;11.40;99.90
9437;DHT22;4757;59.334;18.034;2024-03-29T13:45:15;11.40;99.90
9437;DHT22;4757;59.334;18.034;2024-03-29T13:47:44;11.40;99.90
9437;DHT22;4757;59.334;18.034;2024-03-29T13:50:11;11.40;99.90
9437;DHT22;4757;59.334;18.034;2024-03-29T13:52:38;11.50;99.90
9437;DHT22;4757;59.334;18.034;2024-03-29T13:55:05;11.60;99.90
9437;DHT22;4757;59.334;18.034;2024-03-29T13:57:32;11.80;99.90
9437;DHT22;4757;59.334;18.034;2024-03-29T13:59:59;11.70;99.90
9437;DHT22;4757;59.334;18.034;2024-03-29T14:02:26;11.70;99.90
9437;DHT22;4757;59.334;18.034;2024-03-29T14:04:54;11.70;99.90
9437;DHT22;4757;59.334;18.034;2024-03-29T14:07:21;11.70;99.90
9437;DHT22;4757;59.334;18.034;2024-03-29T14:09:51;11.80;99.90
9437;DHT22;4757;59.334;18.034;2024-03-29T14:12:18;11.70;99.90
9437;DHT22;4757;59.334;18.034;2024-03-29T14:14:48;11.80;99.90
9437;DHT22;4757;59.334;18.034;2024-03-29T14:17:17;11.70;99.90
9437;DHT22;4757;59.334;18.034;2024-03-29T14:19:44;11.70;99.90
9437;DHT22;4757;59.334;18.034;2024-03-29T14:22:10;11.60;99.90
9437;DHT22;4757;59.334;18.034;2024-03-29T14:24:39;11.60;99.90
9437;DHT22;4757;59.334;18.034;2024-03-29T14:27:06;11.60;99.90
9437;DHT22;4757;59.334;18.034;2024-03-29T14:29:33;11.50;99.90
9437;DHT22;4757;59.334;18.034;2024-03-29T14:32:00;11.60;99.90
9437;DHT22;4757;59.334;18.034;2024-03-29T14:34:31;11.60;99.90
9437;DHT22;4757;59.334;18.034;2024-03-29T14:36:58;11.70;99.90
9437;DHT22;4757;59.334;18.034;2024-03-29T14:39:25;11.70;99.90
9437;DHT22;4757;59.334;18.034;2024-03-29T14:41:52;11.60;99.90
9437;DHT22;4757;59.334;18.034;2024-03-29T14:44:20;11.70;99.90
9437;DHT22;4757;59.334;18.034;2024-03-29T14:46:47;11.60;99.90
9437;DHT22;4757;59.334;18.034;2024-03-29T14:49:14;11.60;99.90
9437;DHT22;4757;59.334;18.034;2024-03-29T14:51:44;11.60;99.90
9437;DHT22;4757;59.334;18.034;2024-03-29T14:54:11;11.60;99.90
9437;DHT22;4757;59.334;18.034;2024-03-29T14:56:41;11.60;99.90
9437;DHT22;4757;59.334;18.034;2024-03-29T14:59:08;11.60;99.90
9437;DHT22;4757;59.334;18.034;2024-03-29T15:01:38;11.60;99.90
9437;DHT22;4757;59.334;18.034;2024-03-29T15:04:04;11.60;99.90
9437;DHT22;4757;59.334;18.034;2024-03-29T15:06:31;11.60;99.90
9437;DHT22;4757;59.334;18.034;2024-03-29T15:08:57;11.60;99.90
9437;DHT22;4757;59.334;18.034;2024-03-29T15:11:25;11.60;99.90
9437;DHT22;4757;59.334;18.034;2024-03-29T15:13:52;11.60;99.90
9437;DHT22;4757;59.334;18.034;2024-03-29T15:16:19;11.70;99.90
9437;DHT22;4757;59.334;18.034;2024-03-29T15:18:47;11.70;99.90
9437;DHT22;4757;59.334;18.034;2024-03-29T15:21:14;11.70;99.90
9437;DHT22;4757;59.334;18.034;2024-03-29T15:23:40;11.70;99.90
9437;DHT22;4757;59.334;18.034;2024-03-29T15:26:07;11.80;99.90
9437;DHT22;4757;59.334;18.034;2024-03-29T15:28:34;11.80;99.90
9437;DHT22;4757;59.334;18.034;2024-03-29T15:31:20;11.70;99.90
9437;DHT22;4757;59.334;18.034;2024-03-29T15:33:49;11.80;99.90
9437;DHT22;4757;59.334;18.034;2024-03-29T15:36:16;11.70;99.90
9437;DHT22;4757;59.334;18.034;2024-03-29T15:38:43;11.70;99.90
9437;DHT22;4757;59.334;18.034;2024-03-29T15:41:11;11.60;99.90
9437;DHT22;4757;59.334;18.034;2024-03-29T15:43:40;11.60;99.90
9437;DHT22;4757;59.334;18.034;2024-03-29T15:46:08;11.50;99.90
9437;DHT22;4757;59.334;18.034;2024-03-29T15:48:35;11.50;99.90
9437;DHT22;4757;59.334;18.034;2024-03-29T15:51:01;11.60;99.90
9437;DHT22;4757;59.334;18.034;2024-03-29T15:53:28;11.60;99.90
9437;DHT22;4757;59.334;18.034;2024-03-29T15:55:54;11.60;99.90
9437;DHT22;4757;59.334;18.034;2024-03-29T15:58:21;11.60;99.90
9437;DHT22;4757;59.334;18.034;2024-03-29T16:00:47;11.50;99.90